Sultan, Canada
Current Conditions -  °F | °C
As of 12:00 PM on Friday 31 Oct 2014 (Local Time) from CYLD Reporting Station
Blowing Snow Blowing Snow  
Wind Chill: 14°   Ceiling: 2000
Heat Index: 27°   Visibility: 15mi
Dew Point: 19°   Wind: 16mph
Humidity: 74%   Direction: 360°N
Pressure: 30.26"   Gusts: NA
Location:  47.58°N, 82.77°W
Report Text: CYLD 311600Z 36014KT 15SM DRSN BKN020 M03/M07 A3026 RMK SC4SLP273
Loading
Personal Weather Stations






























Interactive Weather Map
Tropical Storm Tracking
New forecast layout! Learn more

10-Day Weather Forecast

Advertisements
Track Severe Weather on mobile